createdAt,value
2023-05-17T00:02:04.323Z,3.85
2023-05-17T00:04:33.422Z,3.67
2023-05-17T00:07:01.114Z,4.30
2023-05-17T00:09:28.706Z,4.10
2023-05-17T00:11:56.969Z,4.10
2023-05-17T00:14:24.651Z,3.83
2023-05-17T00:16:52.791Z,3.97
2023-05-17T00:19:20.689Z,3.80
2023-05-17T00:21:48.357Z,4.50
2023-05-17T00:24:16.127Z,3.67
2023-05-17T00:26:43.762Z,3.90
2023-05-17T00:29:11.264Z,3.72
2023-05-17T00:31:38.754Z,3.80
2023-05-17T00:34:06.403Z,3.90
2023-05-17T00:36:33.927Z,3.53
2023-05-17T00:39:02.900Z,3.60
2023-05-17T00:41:30.560Z,3.53
2023-05-17T00:43:58.149Z,3.20
2023-05-17T00:46:25.901Z,3.25
2023-05-17T00:48:54.215Z,3.00
2023-05-17T00:51:22.856Z,3.00
2023-05-17T00:53:50.931Z,3.58
2023-05-17T00:56:18.823Z,3.28
2023-05-17T00:58:46.818Z,2.80
2023-05-17T01:01:14.721Z,2.95
2023-05-17T01:03:46.547Z,3.03
2023-05-17T01:06:15.170Z,2.95
2023-05-17T01:08:43.689Z,3.65
2023-05-17T01:11:16.505Z,3.00
2023-05-17T01:13:50.200Z,3.28
2023-05-17T01:16:17.962Z,2.97
2023-05-17T01:19:01.653Z,3.15
2023-05-17T01:21:43.230Z,3.13
2023-05-17T01:24:48.983Z,3.35
2023-05-17T01:27:18.989Z,3.80
2023-05-17T01:29:49.761Z,4.10
2023-05-17T01:32:18.185Z,3.90
2023-05-17T01:34:45.711Z,4.40
2023-05-17T01:37:13.554Z,4.05
2023-05-17T01:39:41.747Z,4.05
2023-05-17T01:42:31.253Z,3.70
2023-05-17T01:45:40.559Z,4.15
2023-05-17T01:48:44.296Z,3.55
2023-05-17T01:51:19.047Z,3.45
2023-05-17T01:53:57.326Z,3.47
2023-05-17T01:56:33.729Z,3.60
2023-05-17T01:59:06.789Z,3.65
2023-05-17T02:01:36.566Z,3.63
2023-05-17T02:06:32.889Z,3.47
2023-05-17T02:09:02.937Z,3.60
2023-05-17T02:11:30.912Z,3.72
2023-05-17T02:13:59.042Z,3.97
2023-05-17T02:16:26.573Z,4.63
2023-05-17T02:18:54.221Z,4.00
2023-05-17T02:21:21.852Z,4.03
2023-05-17T02:23:49.381Z,3.90
2023-05-17T02:26:19.712Z,4.22
2023-05-17T02:28:47.276Z,4.75
2023-05-17T02:31:14.878Z,5.00
2023-05-17T02:33:43.131Z,4.32
2023-05-17T02:36:11.222Z,4.03
2023-05-17T02:38:39.516Z,4.03
2023-05-17T02:41:07.037Z,3.83
2023-05-17T02:43:34.742Z,4.13
2023-05-17T02:48:32.316Z,3.83
2023-05-17T02:50:59.850Z,4.20
2023-05-17T02:53:27.526Z,3.63
2023-05-17T02:55:58.191Z,3.70
2023-05-17T02:58:26.020Z,3.88
2023-05-17T03:00:53.699Z,4.22
2023-05-17T03:03:21.418Z,3.92
2023-05-17T03:05:49.181Z,4.00
2023-05-17T03:08:16.784Z,3.85
2023-05-17T03:10:45.678Z,3.80
2023-05-17T03:13:13.442Z,3.80
2023-05-17T03:15:41.320Z,3.80
2023-05-17T03:18:08.997Z,3.58
2023-05-17T03:23:07.055Z,4.07
2023-05-17T03:25:39.789Z,3.78
2023-05-17T03:28:07.310Z,3.30
2023-05-17T03:30:35.143Z,3.63
2023-05-17T03:33:05.534Z,3.97
2023-05-17T03:35:33.460Z,3.67
2023-05-17T03:38:00.997Z,3.10
2023-05-17T03:40:28.977Z,3.45
2023-05-17T03:42:57.799Z,3.53
2023-05-17T03:45:27.612Z,3.73
2023-05-17T03:47:55.454Z,3.47
2023-05-17T03:50:23.825Z,3.80
2023-05-17T03:52:51.286Z,3.85
2023-05-17T03:55:19.656Z,3.60
2023-05-17T03:57:47.495Z,3.97
2023-05-17T04:00:21.280Z,3.30
2023-05-17T04:02:49.343Z,3.38
2023-05-17T04:05:19.372Z,3.85
2023-05-17T04:07:48.600Z,3.75
2023-05-17T04:10:16.331Z,3.70
2023-05-17T04:12:46.226Z,2.90
2023-05-17T04:15:13.863Z,3.72
2023-05-17T04:17:43.089Z,3.08
2023-05-17T04:20:11.489Z,3.15
2023-05-17T04:22:39.681Z,3.33
2023-05-17T04:25:08.487Z,3.55
2023-05-17T04:27:37.401Z,3.08
2023-05-17T04:30:08.072Z,3.40
2023-05-17T04:32:36.021Z,2.83
2023-05-17T04:35:04.763Z,2.97
2023-05-17T04:37:32.862Z,2.77
2023-05-17T04:40:07.998Z,3.08
2023-05-17T04:42:35.823Z,3.00
2023-05-17T04:45:05.538Z,2.85
2023-05-17T04:47:33.186Z,2.55
2023-05-17T04:50:01.473Z,2.70
2023-05-17T04:52:29.231Z,2.63
2023-05-17T04:54:57.064Z,2.30
2023-05-17T04:57:24.634Z,1.92
2023-05-17T04:59:58.709Z,2.22
2023-05-17T05:02:27.307Z,1.88
2023-05-17T05:04:54.965Z,2.10
2023-05-17T05:07:22.597Z,2.55
2023-05-17T05:09:50.551Z,2.10
2023-05-17T05:12:19.415Z,1.90
2023-05-17T05:14:48.174Z,1.92
2023-05-17T05:17:15.872Z,2.05
2023-05-17T05:19:43.545Z,1.70
2023-05-17T05:22:11.661Z,1.90
2023-05-17T05:24:40.199Z,2.30
2023-05-17T05:27:08.041Z,2.10
2023-05-17T05:29:36.861Z,2.07
2023-05-17T05:32:04.667Z,1.90
2023-05-17T05:34:38.978Z,1.90
2023-05-17T05:37:06.733Z,2.10
2023-05-17T05:39:34.794Z,1.67
2023-05-17T05:42:04.335Z,2.47
2023-05-17T05:44:32.792Z,1.90
2023-05-17T05:47:00.935Z,2.10
2023-05-17T05:49:28.567Z,2.70
2023-05-17T05:51:56.415Z,2.05
2023-05-17T05:56:54.621Z,2.20
2023-05-17T05:59:22.339Z,2.00
2023-05-17T06:01:49.966Z,2.10
2023-05-17T06:04:17.512Z,2.75
2023-05-17T06:06:45.183Z,1.83
2023-05-17T06:09:12.927Z,2.42
2023-05-17T06:11:40.544Z,1.98
2023-05-17T06:14:08.509Z,2.00
2023-05-17T06:16:36.459Z,1.95
2023-05-17T06:19:04.520Z,1.92
2023-05-17T06:21:32.455Z,1.95
2023-05-17T06:23:59.982Z,2.15
2023-05-17T06:26:27.654Z,1.75
2023-05-17T06:28:55.151Z,2.00
2023-05-17T06:31:22.724Z,2.00
2023-05-17T06:33:50.392Z,2.15
2023-05-17T06:36:17.902Z,1.83
2023-05-17T06:38:45.479Z,2.15
2023-05-17T06:41:13.266Z,1.80
2023-05-17T06:43:40.930Z,1.98
2023-05-17T06:46:08.624Z,1.63
2023-05-17T06:48:36.414Z,1.70
2023-05-17T06:51:04.044Z,1.45
2023-05-17T06:53:32.220Z,1.70
2023-05-17T06:55:59.856Z,1.33
2023-05-17T06:58:27.408Z,1.80
2023-05-17T07:00:55.033Z,2.60
2023-05-17T07:03:23.001Z,1.92
2023-05-17T07:05:50.649Z,1.60
2023-05-17T07:08:18.390Z,1.85
2023-05-17T07:10:46.552Z,1.77
2023-05-17T07:13:14.189Z,1.65
2023-05-17T07:15:41.775Z,1.77
2023-05-17T07:18:11.265Z,1.70
2023-05-17T07:20:38.985Z,2.20
2023-05-17T07:23:06.730Z,1.40
2023-05-17T07:25:34.369Z,1.40
2023-05-17T07:28:01.912Z,1.50
2023-05-17T07:30:31.526Z,1.30
2023-05-17T07:32:59.625Z,1.63
2023-05-17T07:35:27.260Z,1.30
2023-05-17T07:37:55.124Z,1.20
2023-05-17T07:40:22.766Z,1.30
2023-05-17T07:42:50.651Z,1.58
2023-05-17T07:45:18.768Z,1.60
2023-05-17T07:47:46.424Z,1.48
2023-05-17T07:50:14.091Z,1.85
2023-05-17T07:52:41.793Z,1.80
2023-05-17T07:55:10.128Z,1.85
2023-05-17T07:57:38.114Z,1.40
2023-05-17T08:00:08.898Z,1.70
2023-05-17T08:02:41.349Z,1.60
2023-05-17T08:05:09.703Z,1.55
2023-05-17T08:07:37.868Z,1.70
2023-05-17T08:10:05.935Z,1.63
2023-05-17T08:12:33.856Z,1.65
2023-05-17T08:15:01.436Z,1.73
2023-05-17T08:17:29.254Z,1.58
2023-05-17T08:19:57.870Z,2.00
2023-05-17T08:22:26.504Z,2.20
2023-05-17T08:24:54.083Z,1.75
2023-05-17T08:27:21.709Z,1.90
2023-05-17T08:29:49.604Z,2.03
2023-05-17T08:32:17.285Z,1.75
2023-05-17T08:34:44.858Z,1.67
2023-05-17T08:37:12.548Z,1.73
2023-05-17T08:39:40.265Z,1.80
2023-05-17T08:42:08.409Z,1.88
2023-05-17T08:44:37.235Z,2.47
2023-05-17T08:47:07.651Z,1.50
2023-05-17T08:49:38.116Z,1.80
2023-05-17T08:52:10.212Z,1.40
2023-05-17T08:54:38.054Z,1.42
2023-05-17T08:57:07.407Z,1.27
2023-05-17T08:59:35.457Z,1.30
2023-05-17T09:02:05.768Z,1.60
2023-05-17T09:04:34.294Z,1.50
2023-05-17T09:07:02.069Z,1.60
2023-05-17T09:09:30.006Z,2.00
2023-05-17T09:11:57.563Z,3.28
2023-05-17T09:14:25.161Z,2.08
2023-05-17T09:17:00.105Z,1.52
2023-05-17T09:19:28.244Z,1.80
2023-05-17T09:21:56.148Z,1.40
2023-05-17T09:24:31.016Z,1.45
2023-05-17T09:27:03.726Z,1.98
2023-05-17T09:29:32.775Z,1.70
2023-05-17T09:32:20.997Z,2.23
2023-05-17T09:34:48.763Z,1.48
2023-05-17T09:37:17.635Z,1.50
2023-05-17T09:39:47.040Z,1.60
2023-05-17T09:42:16.864Z,1.30
2023-05-17T09:44:57.657Z,1.40
2023-05-17T09:47:29.289Z,1.83
2023-05-17T09:50:00.715Z,1.98
2023-05-17T09:52:32.363Z,1.23
2023-05-17T09:55:01.148Z,1.17
2023-05-17T09:57:37.902Z,1.42
2023-05-17T10:00:12.420Z,3.58
2023-05-17T10:02:48.327Z,1.67
2023-05-17T10:05:17.930Z,1.38
2023-05-17T10:07:48.066Z,1.20
2023-05-17T10:10:18.211Z,1.25
2023-05-17T10:12:47.455Z,1.50
2023-05-17T10:15:17.838Z,1.60
2023-05-17T10:17:46.302Z,1.70
2023-05-17T10:20:15.725Z,1.83
2023-05-17T10:22:44.062Z,2.90
2023-05-17T10:25:12.631Z,1.90
2023-05-17T10:27:41.927Z,1.80
2023-05-17T10:30:11.603Z,1.85
2023-05-17T10:32:39.933Z,1.77
2023-05-17T10:35:12.026Z,2.20
2023-05-17T10:37:41.364Z,1.92
2023-05-17T10:40:14.034Z,1.95
2023-05-17T10:42:46.940Z,2.10
2023-05-17T10:45:14.948Z,1.90
2023-05-17T10:47:43.622Z,1.88
2023-05-17T10:50:13.331Z,1.83
2023-05-17T10:52:48.916Z,2.00
2023-05-17T10:55:20.978Z,1.75
2023-05-17T10:58:16.140Z,1.67
2023-05-17T11:00:47.557Z,1.85
2023-05-17T11:03:18.568Z,2.00
2023-05-17T11:06:23.333Z,1.70
2023-05-17T11:09:13.860Z,1.85
2023-05-17T11:12:05.509Z,1.73
2023-05-17T11:14:45.644Z,1.80
2023-05-17T11:17:20.762Z,1.80
2023-05-17T11:19:55.034Z,1.90
2023-05-17T11:22:37.260Z,1.90
2023-05-17T11:25:09.294Z,1.75
2023-05-17T11:27:39.891Z,2.10
2023-05-17T11:30:31.808Z,2.28
2023-05-17T11:33:05.717Z,3.03
2023-05-17T11:35:39.575Z,1.98
2023-05-17T11:38:24.510Z,1.80
2023-05-17T11:40:56.905Z,1.50
2023-05-17T11:43:27.428Z,1.50
2023-05-17T11:46:01.724Z,1.73
2023-05-17T11:48:31.623Z,2.05
2023-05-17T11:51:01.518Z,1.50
2023-05-17T11:53:31.253Z,1.65
2023-05-17T11:56:04.181Z,1.60
2023-05-17T11:58:32.193Z,1.80
2023-05-17T12:00:59.764Z,1.98
2023-05-17T12:03:29.251Z,2.83
2023-05-17T12:06:13.253Z,1.90
2023-05-17T12:08:46.487Z,3.95
2023-05-17T12:11:18.963Z,1.90
2023-05-17T12:13:49.138Z,1.95
2023-05-17T12:16:22.611Z,2.13
2023-05-17T12:18:52.150Z,2.08
2023-05-17T12:23:52.090Z,1.50
2023-05-17T12:26:22.468Z,4.07
2023-05-17T12:28:58.168Z,3.17
2023-05-17T12:31:30.137Z,1.75
2023-05-17T12:33:59.447Z,2.22
2023-05-17T12:36:29.824Z,1.77
2023-05-17T12:38:57.821Z,2.13
2023-05-17T12:41:26.783Z,1.75
2023-05-17T12:44:06.314Z,1.73
2023-05-17T12:46:42.164Z,1.90
2023-05-17T12:49:11.968Z,2.03
2023-05-17T12:51:42.404Z,2.50
2023-05-17T12:54:10.604Z,2.10
2023-05-17T12:56:38.332Z,2.28
2023-05-17T12:59:15.462Z,2.08
2023-05-17T13:01:45.739Z,2.20
2023-05-17T13:04:15.186Z,2.15
2023-05-17T13:07:00.020Z,2.28
2023-05-17T13:09:31.043Z,2.10
2023-05-17T13:11:59.757Z,2.33
2023-05-17T13:14:46.515Z,2.45
2023-05-17T13:17:34.713Z,2.28
2023-05-17T13:20:02.457Z,2.40
2023-05-17T13:22:30.317Z,2.10
2023-05-17T13:24:57.868Z,2.60
2023-05-17T13:27:25.512Z,2.35
2023-05-17T13:29:53.268Z,2.28
2023-05-17T13:32:21.332Z,2.17
2023-05-17T13:34:48.886Z,2.58
2023-05-17T13:37:16.524Z,2.30
2023-05-17T13:39:44.133Z,2.22
2023-05-17T13:42:13.119Z,2.10
2023-05-17T13:44:40.838Z,2.25
2023-05-17T13:47:08.526Z,2.05
2023-05-17T13:49:36.350Z,2.10
2023-05-17T13:52:03.943Z,2.17
2023-05-17T13:54:31.840Z,1.85
2023-05-17T13:56:59.526Z,2.03
2023-05-17T13:59:27.640Z,2.22
2023-05-17T14:01:55.211Z,2.17
2023-05-17T14:04:22.862Z,1.77
2023-05-17T14:06:54.119Z,2.42
2023-05-17T14:09:22.683Z,2.15
2023-05-17T14:11:50.290Z,1.80
2023-05-17T14:14:17.923Z,2.05
2023-05-17T14:16:46.011Z,2.20
2023-05-17T14:19:13.624Z,1.88
2023-05-17T14:21:41.204Z,1.80
2023-05-17T14:24:08.768Z,1.95
2023-05-17T14:26:37.288Z,2.20
2023-05-17T14:29:07.977Z,2.42
2023-05-17T14:31:35.697Z,2.00
2023-05-17T14:34:04.017Z,2.40
2023-05-17T14:36:34.021Z,2.92
2023-05-17T14:39:01.788Z,2.10
2023-05-17T14:41:29.561Z,2.40
2023-05-17T14:43:57.170Z,2.00
2023-05-17T14:46:24.908Z,2.00
2023-05-17T14:48:52.628Z,2.20
2023-05-17T14:51:20.370Z,1.90
2023-05-17T14:53:48.216Z,2.10
2023-05-17T14:56:16.878Z,2.05
2023-05-17T14:58:44.602Z,2.50
2023-05-17T15:01:12.256Z,2.67
2023-05-17T15:03:39.911Z,2.28
2023-05-17T15:06:09.533Z,1.92
2023-05-17T15:08:40.766Z,1.88
2023-05-17T15:11:09.622Z,1.70
2023-05-17T15:13:38.263Z,1.98
2023-05-17T15:16:06.301Z,1.92
2023-05-17T15:18:33.960Z,1.50
2023-05-17T15:21:02.660Z,1.65
2023-05-17T15:23:30.430Z,1.70
2023-05-17T15:25:58.089Z,1.88
2023-05-17T15:28:25.797Z,1.63
2023-05-17T15:31:06.412Z,1.55
2023-05-17T15:33:34.161Z,1.45
2023-05-17T15:36:02.100Z,1.70
2023-05-17T15:38:30.031Z,2.30
2023-05-17T15:41:06.617Z,1.90
2023-05-17T15:43:35.100Z,1.85
2023-05-17T15:46:02.647Z,1.57
2023-05-17T15:48:31.105Z,1.63
2023-05-17T15:51:01.368Z,1.73
2023-05-17T15:53:30.021Z,2.08
2023-05-17T15:55:57.641Z,2.63
2023-05-17T15:58:28.068Z,1.90
2023-05-17T16:00:55.979Z,1.92
2023-05-17T16:03:23.530Z,2.20
2023-05-17T16:05:51.679Z,2.00
2023-05-17T16:08:20.449Z,2.00
2023-05-17T16:10:48.104Z,1.73
2023-05-17T16:13:16.324Z,1.88
2023-05-17T16:15:43.918Z,1.90
2023-05-17T16:18:13.815Z,2.00
2023-05-17T16:20:41.998Z,2.10
2023-05-17T16:23:09.942Z,2.00
2023-05-17T16:25:37.695Z,2.20
2023-05-17T16:28:05.402Z,3.38
2023-05-17T16:30:33.330Z,2.10
2023-05-17T16:33:01.403Z,2.05
2023-05-17T16:35:29.347Z,2.20
2023-05-17T16:37:57.034Z,2.15
2023-05-17T16:40:24.607Z,1.85
2023-05-17T16:42:52.111Z,1.65
2023-05-17T16:45:20.078Z,1.90
2023-05-17T16:47:47.682Z,1.70
2023-05-17T16:50:15.327Z,2.60
2023-05-17T16:52:42.941Z,2.00
2023-05-17T16:55:10.557Z,1.88
2023-05-17T16:57:38.415Z,1.88
2023-05-17T17:00:06.699Z,2.10
2023-05-17T17:02:34.525Z,1.80
2023-05-17T17:05:04.454Z,2.05
2023-05-17T17:07:32.683Z,2.20
2023-05-17T17:10:00.321Z,1.90
2023-05-17T17:12:27.912Z,1.70
2023-05-17T17:14:55.936Z,2.10
2023-05-17T17:17:23.491Z,1.80
2023-05-17T17:19:51.299Z,1.70
2023-05-17T17:22:18.906Z,2.00
2023-05-17T17:24:46.538Z,2.00
2023-05-17T17:27:14.214Z,2.00
2023-05-17T17:29:41.802Z,2.40
2023-05-17T17:32:09.609Z,2.05
2023-05-17T17:34:37.496Z,1.90
2023-05-17T17:37:05.498Z,3.00
2023-05-17T17:39:33.526Z,2.70
2023-05-17T17:42:01.959Z,2.58
2023-05-17T17:44:29.720Z,2.33
2023-05-17T17:46:57.254Z,2.55
2023-05-17T17:49:24.919Z,2.60
2023-05-17T17:51:52.744Z,2.10
2023-05-17T17:54:20.409Z,2.53
2023-05-17T17:56:48.012Z,2.85
2023-05-17T17:59:15.536Z,2.80
2023-05-17T18:01:43.912Z,2.90
2023-05-17T18:04:13.656Z,2.20
2023-05-17T18:06:43.801Z,2.47
2023-05-17T18:11:39.557Z,2.55
2023-05-17T18:14:08.216Z,2.97
2023-05-17T18:16:36.278Z,3.53
2023-05-17T18:19:04.003Z,2.55
2023-05-17T18:21:31.766Z,3.10
2023-05-17T18:24:00.418Z,2.95
2023-05-17T18:26:27.927Z,2.95
2023-05-17T18:28:55.485Z,3.17
2023-05-17T18:31:23.104Z,3.28
2023-05-17T18:33:50.692Z,3.05
2023-05-17T18:36:18.433Z,3.03
2023-05-17T18:38:45.971Z,2.67
2023-05-17T18:41:13.537Z,3.30
2023-05-17T18:43:41.086Z,3.15
2023-05-17T18:46:08.759Z,3.58
2023-05-17T18:48:37.057Z,3.10
2023-05-17T18:51:04.717Z,3.28
2023-05-17T18:53:32.427Z,6.00
2023-05-17T18:56:02.544Z,4.00
2023-05-17T18:58:30.277Z,5.53
2023-05-17T19:00:58.062Z,3.90
2023-05-17T19:03:25.717Z,3.30
2023-05-17T19:05:53.481Z,3.30
2023-05-17T19:08:21.142Z,2.80
2023-05-17T19:10:48.817Z,2.95
2023-05-17T19:13:16.461Z,3.00
2023-05-17T19:15:44.032Z,3.65
2023-05-17T19:18:11.672Z,3.63
2023-05-17T19:20:39.312Z,4.03
2023-05-17T19:23:06.958Z,6.03
2023-05-17T19:25:34.730Z,4.60
2023-05-17T19:28:02.383Z,4.10
2023-05-17T19:30:32.742Z,3.97
2023-05-17T19:33:01.619Z,3.92
2023-05-17T19:35:30.093Z,4.10
2023-05-17T19:37:57.697Z,4.35
2023-05-17T19:40:25.399Z,4.20
2023-05-17T19:42:52.918Z,4.10
2023-05-17T19:45:21.062Z,3.95
2023-05-17T19:47:48.890Z,4.38
2023-05-17T19:50:16.948Z,3.65
2023-05-17T19:52:44.678Z,4.55
2023-05-17T19:55:15.850Z,3.85
2023-05-17T19:57:43.504Z,4.43
2023-05-17T20:00:11.672Z,3.95
2023-05-17T20:02:40.681Z,4.68
2023-05-17T20:05:08.831Z,5.28
2023-05-17T20:07:37.891Z,5.50
2023-05-17T20:10:06.486Z,24.20
2023-05-17T20:12:34.325Z,9.47
2023-05-17T20:15:02.061Z,6.10
2023-05-17T20:17:29.806Z,5.13
2023-05-17T20:19:57.428Z,5.30
2023-05-17T20:22:25.411Z,5.90
2023-05-17T20:24:53.748Z,5.13
2023-05-17T20:27:22.261Z,5.23
2023-05-17T20:29:49.905Z,4.88
2023-05-17T20:32:17.528Z,4.85
2023-05-17T20:34:45.228Z,4.47
2023-05-17T20:37:12.878Z,5.10
2023-05-17T20:39:40.606Z,4.78
2023-05-17T20:42:08.494Z,5.13
2023-05-17T20:44:36.174Z,4.38
2023-05-17T20:47:05.803Z,4.85
2023-05-17T20:49:33.415Z,5.53
2023-05-17T20:52:03.371Z,5.65
2023-05-17T20:54:31.474Z,7.57
2023-05-17T20:56:59.978Z,8.70
2023-05-17T20:59:27.618Z,8.52
2023-05-17T21:01:56.060Z,24.83
2023-05-17T21:04:23.837Z,7.63
2023-05-17T21:06:52.369Z,10.65
2023-05-17T21:09:19.936Z,8.32
2023-05-17T21:11:47.536Z,9.15
2023-05-17T21:14:15.248Z,15.50
2023-05-17T21:16:43.175Z,10.65
2023-05-17T21:19:11.075Z,16.40
2023-05-17T21:21:38.703Z,16.40
2023-05-17T21:24:06.893Z,13.38
2023-05-17T21:26:36.324Z,10.95
2023-05-17T21:29:06.208Z,10.48
2023-05-17T21:31:34.039Z,10.80
2023-05-17T21:34:01.675Z,11.30
2023-05-17T21:36:29.513Z,9.70
2023-05-17T21:38:57.234Z,8.75
2023-05-17T21:41:24.854Z,6.78
2023-05-17T21:43:52.453Z,6.47
2023-05-17T21:46:20.073Z,7.07
2023-05-17T21:48:47.676Z,6.28
2023-05-17T21:51:15.537Z,8.70
2023-05-17T21:53:43.158Z,8.02
2023-05-17T21:56:11.503Z,8.63
2023-05-17T21:58:39.201Z,8.93
2023-05-17T22:01:07.396Z,8.77
2023-05-17T22:03:35.136Z,8.05
2023-05-17T22:06:02.913Z,8.88
2023-05-17T22:08:32.208Z,9.20
2023-05-17T22:10:59.756Z,9.07
2023-05-17T22:13:27.654Z,9.18
2023-05-17T22:15:58.853Z,8.88
2023-05-17T22:18:27.664Z,9.00
2023-05-17T22:20:55.365Z,13.88
2023-05-17T22:23:23.090Z,13.05
2023-05-17T22:25:50.771Z,9.30
2023-05-17T22:28:18.578Z,9.55
2023-05-17T22:30:46.597Z,9.95
2023-05-17T22:33:14.697Z,9.73
2023-05-17T22:35:42.245Z,9.18
2023-05-17T22:38:11.370Z,9.70
2023-05-17T22:40:38.900Z,9.32
2023-05-17T22:43:08.327Z,8.68
2023-05-17T22:48:05.881Z,9.30
2023-05-17T22:50:34.230Z,8.93
2023-05-17T22:53:01.766Z,15.20
2023-05-17T22:55:29.948Z,12.77
2023-05-17T22:57:58.162Z,8.80
2023-05-17T23:00:26.330Z,8.82
2023-05-17T23:02:54.029Z,9.25
2023-05-17T23:05:22.347Z,8.20
2023-05-17T23:07:49.887Z,8.95
2023-05-17T23:10:17.465Z,8.52
2023-05-17T23:12:45.281Z,8.05
2023-05-17T23:15:12.828Z,7.43
2023-05-17T23:17:41.277Z,7.63
2023-05-17T23:20:10.510Z,8.05
2023-05-17T23:22:39.314Z,7.97
2023-05-17T23:25:07.180Z,8.43
2023-05-17T23:27:35.783Z,7.07
2023-05-17T23:30:04.472Z,7.00
2023-05-17T23:32:32.759Z,6.72
2023-05-17T23:35:04.300Z,6.95
2023-05-17T23:37:36.270Z,6.75
2023-05-17T23:40:09.464Z,7.35
2023-05-17T23:42:37.845Z,6.80
2023-05-17T23:45:06.043Z,6.30
2023-05-17T23:47:33.934Z,7.18
2023-05-17T23:50:03.064Z,7.20
2023-05-17T23:52:32.741Z,7.45
2023-05-17T23:55:01.681Z,7.95
2023-05-17T23:57:29.767Z,9.13
2023-05-17T23:59:57.347Z,10.15
